sensor_id;sensor_type;location;lat;lon;timestamp;temperature;humidity
48734;DHT22;34530;52.084;5.146;2022-07-04T00:00:23;25.00;49.50
48734;DHT22;34530;52.084;5.146;2022-07-04T00:02:50;25.00;50.10
48734;DHT22;34530;52.084;5.146;2022-07-04T00:05:16;25.00;49.50
48734;DHT22;34530;52.084;5.146;2022-07-04T00:07:45;25.00;49.50
48734;DHT22;34530;52.084;5.146;2022-07-04T00:10:12;25.00;49.50
48734;DHT22;34530;52.084;5.146;2022-07-04T00:12:38;25.00;49.50
48734;DHT22;34530;52.084;5.146;2022-07-04T00:15:05;24.90;49.40
48734;DHT22;34530;52.084;5.146;2022-07-04T00:17:31;24.90;49.50
48734;DHT22;34530;52.084;5.146;2022-07-04T00:19:57;25.00;49.50
48734;DHT22;34530;52.084;5.146;2022-07-04T00:22:23;24.90;49.50
48734;DHT22;34530;52.084;5.146;2022-07-04T00:24:49;24.90;49.50
48734;DHT22;34530;52.084;5.146;2022-07-04T00:27:15;24.90;49.50
48734;DHT22;34530;52.084;5.146;2022-07-04T00:29:41;24.90;49.50
48734;DHT22;34530;52.084;5.146;2022-07-04T00:32:07;24.90;49.50
48734;DHT22;34530;52.084;5.146;2022-07-04T00:34:33;24.90;49.50
48734;DHT22;34530;52.084;5.146;2022-07-04T00:36:58;24.90;49.50
48734;DHT22;34530;52.084;5.146;2022-07-04T00:39:24;24.90;49.60
48734;DHT22;34530;52.084;5.146;2022-07-04T00:41:50;24.90;49.60
48734;DHT22;34530;52.084;5.146;2022-07-04T00:44:15;24.90;49.60
48734;DHT22;34530;52.084;5.146;2022-07-04T00:46:42;24.90;49.60
48734;DHT22;34530;52.084;5.146;2022-07-04T00:49:10;24.80;49.50
48734;DHT22;34530;52.084;5.146;2022-07-04T00:51:38;24.90;49.60
48734;DHT22;34530;52.084;5.146;2022-07-04T00:54:06;24.80;49.60
48734;DHT22;34530;52.084;5.146;2022-07-04T00:56:32;24.80;49.60
48734;DHT22;34530;52.084;5.146;2022-07-04T00:58:59;24.80;49.60
48734;DHT22;34530;52.084;5.146;2022-07-04T01:01:25;24.80;49.70
48734;DHT22;34530;52.084;5.146;2022-07-04T01:03:51;24.80;49.70
48734;DHT22;34530;52.084;5.146;2022-07-04T01:06:19;24.80;49.70
48734;DHT22;34530;52.084;5.146;2022-07-04T01:08:45;24.80;49.70
48734;DHT22;34530;52.084;5.146;2022-07-04T01:11:11;24.80;49.80
48734;DHT22;34530;52.084;5.146;2022-07-04T01:13:37;24.80;49.80
48734;DHT22;34530;52.084;5.146;2022-07-04T01:16:04;24.80;50.10
48734;DHT22;34530;52.084;5.146;2022-07-04T01:18:30;24.80;49.90
48734;DHT22;34530;52.084;5.146;2022-07-04T01:20:56;24.80;49.90
48734;DHT22;34530;52.084;5.146;2022-07-04T01:23:22;24.70;49.80
48734;DHT22;34530;52.084;5.146;2022-07-04T01:25:47;24.70;49.90
48734;DHT22;34530;52.084;5.146;2022-07-04T01:28:16;24.70;49.90
48734;DHT22;34530;52.084;5.146;2022-07-04T01:30:41;24.70;49.90
48734;DHT22;34530;52.084;5.146;2022-07-04T01:33:07;24.70;49.90
48734;DHT22;34530;52.084;5.146;2022-07-04T01:35:33;24.70;49.90
48734;DHT22;34530;52.084;5.146;2022-07-04T01:37:58;24.70;49.90
48734;DHT22;34530;52.084;5.146;2022-07-04T01:40:24;24.70;50.00
48734;DHT22;34530;52.084;5.146;2022-07-04T01:42:50;24.70;50.00
48734;DHT22;34530;52.084;5.146;2022-07-04T01:45:16;24.60;50.00
48734;DHT22;34530;52.084;5.146;2022-07-04T01:47:42;24.60;50.00
48734;DHT22;34530;52.084;5.146;2022-07-04T01:50:09;24.60;50.00
48734;DHT22;34530;52.084;5.146;2022-07-04T01:52:38;24.60;50.00
48734;DHT22;34530;52.084;5.146;2022-07-04T01:55:04;24.60;50.00
48734;DHT22;34530;52.084;5.146;2022-07-04T01:57:30;24.60;50.00
48734;DHT22;34530;52.084;5.146;2022-07-04T01:59:55;24.60;50.10
48734;DHT22;34530;52.084;5.146;2022-07-04T02:02:39;24.60;50.10
48734;DHT22;34530;52.084;5.146;2022-07-04T02:05:05;24.50;50.10
48734;DHT22;34530;52.084;5.146;2022-07-04T02:07:30;24.50;50.10
48734;DHT22;34530;52.084;5.146;2022-07-04T02:09:56;24.50;50.10
48734;DHT22;34530;52.084;5.146;2022-07-04T02:12:22;24.50;50.10
48734;DHT22;34530;52.084;5.146;2022-07-04T02:15:07;24.50;50.10
48734;DHT22;34530;52.084;5.146;2022-07-04T02:17:33;24.50;50.20
48734;DHT22;34530;52.084;5.146;2022-07-04T02:19:59;24.50;50.20
48734;DHT22;34530;52.084;5.146;2022-07-04T02:22:24;24.50;50.20
48734;DHT22;34530;52.084;5.146;2022-07-04T02:24:50;24.50;50.20
48734;DHT22;34530;52.084;5.146;2022-07-04T02:27:16;24.50;50.30
48734;DHT22;34530;52.084;5.146;2022-07-04T02:29:41;24.50;50.30
48734;DHT22;34530;52.084;5.146;2022-07-04T02:32:07;24.50;50.30
48734;DHT22;34530;52.084;5.146;2022-07-04T02:34:33;24.50;50.30
48734;DHT22;34530;52.084;5.146;2022-07-04T02:36:59;24.50;50.30
48734;DHT22;34530;52.084;5.146;2022-07-04T02:39:25;24.40;50.30
48734;DHT22;34530;52.084;5.146;2022-07-04T02:41:50;24.50;50.30
48734;DHT22;34530;52.084;5.146;2022-07-04T02:44:16;24.40;50.30
48734;DHT22;34530;52.084;5.146;2022-07-04T02:46:42;24.40;50.30
48734;DHT22;34530;52.084;5.146;2022-07-04T02:49:08;24.40;50.30
48734;DHT22;34530;52.084;5.146;2022-07-04T02:51:33;24.40;50.40
48734;DHT22;34530;52.084;5.146;2022-07-04T02:53:59;24.40;50.40
48734;DHT22;34530;52.084;5.146;2022-07-04T02:56:26;24.40;50.40
48734;DHT22;34530;52.084;5.146;2022-07-04T02:58:52;24.40;50.40
48734;DHT22;34530;52.084;5.146;2022-07-04T03:01:18;24.40;50.40
48734;DHT22;34530;52.084;5.146;2022-07-04T03:03:45;24.40;50.40
48734;DHT22;34530;52.084;5.146;2022-07-04T03:06:11;24.30;50.40
48734;DHT22;34530;52.084;5.146;2022-07-04T03:08:37;24.30;50.40
48734;DHT22;34530;52.084;5.146;2022-07-04T03:11:03;24.30;50.50
48734;DHT22;34530;52.084;5.146;2022-07-04T03:13:29;24.30;50.50
48734;DHT22;34530;52.084;5.146;2022-07-04T03:15:55;24.30;50.50
48734;DHT22;34530;52.084;5.146;2022-07-04T03:18:21;24.30;50.50
48734;DHT22;34530;52.084;5.146;2022-07-04T03:20:47;24.30;50.50
48734;DHT22;34530;52.084;5.146;2022-07-04T03:23:13;24.30;50.50
48734;DHT22;34530;52.084;5.146;2022-07-04T03:25:39;24.30;50.60
48734;DHT22;34530;52.084;5.146;2022-07-04T03:28:06;24.30;50.60
48734;DHT22;34530;52.084;5.146;2022-07-04T03:30:33;24.30;50.60
48734;DHT22;34530;52.084;5.146;2022-07-04T03:32:59;24.30;50.60
48734;DHT22;34530;52.084;5.146;2022-07-04T03:35:25;24.20;50.60
48734;DHT22;34530;52.084;5.146;2022-07-04T03:37:51;24.30;50.70
48734;DHT22;34530;52.084;5.146;2022-07-04T03:40:19;24.20;50.60
48734;DHT22;34530;52.084;5.146;2022-07-04T03:42:45;24.20;50.60
48734;DHT22;34530;52.084;5.146;2022-07-04T03:45:11;24.20;50.60
48734;DHT22;34530;52.084;5.146;2022-07-04T03:47:37;24.20;50.70
48734;DHT22;34530;52.084;5.146;2022-07-04T03:50:03;24.20;50.70
48734;DHT22;34530;52.084;5.146;2022-07-04T03:52:29;24.20;50.70
48734;DHT22;34530;52.084;5.146;2022-07-04T03:54:55;24.20;50.70
48734;DHT22;34530;52.084;5.146;2022-07-04T03:57:21;24.20;50.70
48734;DHT22;34530;52.084;5.146;2022-07-04T03:59:46;24.20;50.80
48734;DHT22;34530;52.084;5.146;2022-07-04T04:02:12;24.20;50.80
48734;DHT22;34530;52.084;5.146;2022-07-04T04:04:38;24.20;50.80
48734;DHT22;34530;52.084;5.146;2022-07-04T04:07:25;24.10;50.70
48734;DHT22;34530;52.084;5.146;2022-07-04T04:09:50;24.10;50.80
48734;DHT22;34530;52.084;5.146;2022-07-04T04:12:16;24.10;50.80
48734;DHT22;34530;52.084;5.146;2022-07-04T04:14:42;24.10;50.80
48734;DHT22;34530;52.084;5.146;2022-07-04T04:17:07;24.10;50.80
48734;DHT22;34530;52.084;5.146;2022-07-04T04:19:33;24.10;50.80
48734;DHT22;34530;52.084;5.146;2022-07-04T04:21:59;24.10;50.90
48734;DHT22;34530;52.084;5.146;2022-07-04T04:24:24;24.10;50.90
48734;DHT22;34530;52.084;5.146;2022-07-04T04:26:50;24.00;50.90
48734;DHT22;34530;52.084;5.146;2022-07-04T04:29:16;24.00;50.90
48734;DHT22;34530;52.084;5.146;2022-07-04T04:31:41;24.00;50.90
48734;DHT22;34530;52.084;5.146;2022-07-04T04:34:07;24.00;51.00
48734;DHT22;34530;52.084;5.146;2022-07-04T04:36:33;24.00;51.00
48734;DHT22;34530;52.084;5.146;2022-07-04T04:38:58;24.00;51.00
48734;DHT22;34530;52.084;5.146;2022-07-04T04:41:24;24.00;51.00
48734;DHT22;34530;52.084;5.146;2022-07-04T04:43:50;24.00;51.00
48734;DHT22;34530;52.084;5.146;2022-07-04T04:46:15;24.00;51.10
48734;DHT22;34530;52.084;5.146;2022-07-04T04:48:41;24.00;51.20
48734;DHT22;34530;52.084;5.146;2022-07-04T04:51:06;24.00;51.20
48734;DHT22;34530;52.084;5.146;2022-07-04T04:53:32;24.00;51.20
48734;DHT22;34530;52.084;5.146;2022-07-04T04:55:58;23.90;51.20
48734;DHT22;34530;52.084;5.146;2022-07-04T04:58:24;24.00;51.30
48734;DHT22;34530;52.084;5.146;2022-07-04T05:00:50;24.00;51.30
48734;DHT22;34530;52.084;5.146;2022-07-04T05:03:17;23.90;51.30
48734;DHT22;34530;52.084;5.146;2022-07-04T05:05:43;23.90;51.30
48734;DHT22;34530;52.084;5.146;2022-07-04T05:08:09;23.90;51.40
48734;DHT22;34530;52.084;5.146;2022-07-04T05:10:35;23.90;51.40
48734;DHT22;34530;52.084;5.146;2022-07-04T05:13:00;23.90;51.50
48734;DHT22;34530;52.084;5.146;2022-07-04T05:15:26;23.90;51.50
48734;DHT22;34530;52.084;5.146;2022-07-04T05:17:52;23.90;51.60
48734;DHT22;34530;52.084;5.146;2022-07-04T05:20:18;23.90;51.60
48734;DHT22;34530;52.084;5.146;2022-07-04T05:22:43;23.90;51.70
48734;DHT22;34530;52.084;5.146;2022-07-04T05:25:09;23.80;51.60
48734;DHT22;34530;52.084;5.146;2022-07-04T05:27:34;23.80;51.60
48734;DHT22;34530;52.084;5.146;2022-07-04T05:30:00;23.80;51.70
48734;DHT22;34530;52.084;5.146;2022-07-04T05:32:26;23.80;51.70
48734;DHT22;34530;52.084;5.146;2022-07-04T05:34:52;23.80;51.80
48734;DHT22;34530;52.084;5.146;2022-07-04T05:37:18;23.80;51.90
48734;DHT22;34530;52.084;5.146;2022-07-04T05:39:44;23.80;51.90
48734;DHT22;34530;52.084;5.146;2022-07-04T05:42:09;23.80;51.90
48734;DHT22;34530;52.084;5.146;2022-07-04T05:44:35;23.80;52.00
48734;DHT22;34530;52.084;5.146;2022-07-04T05:47:01;23.80;52.00
48734;DHT22;34530;52.084;5.146;2022-07-04T05:49:26;23.80;52.10
48734;DHT22;34530;52.084;5.146;2022-07-04T05:51:52;23.80;52.20
48734;DHT22;34530;52.084;5.146;2022-07-04T05:54:18;23.80;52.20
48734;DHT22;34530;52.084;5.146;2022-07-04T05:56:43;23.80;52.30
48734;DHT22;34530;52.084;5.146;2022-07-04T05:59:09;23.80;52.40
48734;DHT22;34530;52.084;5.146;2022-07-04T06:01:38;23.80;52.40
48734;DHT22;34530;52.084;5.146;2022-07-04T06:04:05;23.80;52.40
48734;DHT22;34530;52.084;5.146;2022-07-04T06:06:30;23.80;52.50
48734;DHT22;34530;52.084;5.146;2022-07-04T06:08:57;23.80;52.60
48734;DHT22;34530;52.084;5.146;2022-07-04T06:11:23;23.80;52.60
48734;DHT22;34530;52.084;5.146;2022-07-04T06:13:48;23.70;52.60
48734;DHT22;34530;52.084;5.146;2022-07-04T06:16:15;23.70;53.20
48734;DHT22;34530;52.084;5.146;2022-07-04T06:18:40;23.70;53.30
48734;DHT22;34530;52.084;5.146;2022-07-04T06:21:06;23.70;52.70
48734;DHT22;34530;52.084;5.146;2022-07-04T06:23:32;23.80;52.90
48734;DHT22;34530;52.084;5.146;2022-07-04T06:25:57;23.70;52.80
48734;DHT22;34530;52.084;5.146;2022-07-04T06:28:23;23.70;52.90
48734;DHT22;34530;52.084;5.146;2022-07-04T06:30:49;23.70;52.90
48734;DHT22;34530;52.084;5.146;2022-07-04T06:33:14;23.70;53.00
48734;DHT22;34530;52.084;5.146;2022-07-04T06:35:40;23.70;53.10
48734;DHT22;34530;52.084;5.146;2022-07-04T06:38:15;23.70;53.10
48734;DHT22;34530;52.084;5.146;2022-07-04T06:40:41;23.70;53.10
48734;DHT22;34530;52.084;5.146;2022-07-04T06:43:07;23.70;53.10
48734;DHT22;34530;52.084;5.146;2022-07-04T06:45:33;23.70;53.20
48734;DHT22;34530;52.084;5.146;2022-07-04T06:48:00;23.80;53.20
48734;DHT22;34530;52.084;5.146;2022-07-04T06:50:25;23.80;53.30
48734;DHT22;34530;52.084;5.146;2022-07-04T06:52:51;23.80;53.30
48734;DHT22;34530;52.084;5.146;2022-07-04T06:55:17;23.80;53.40
48734;DHT22;34530;52.084;5.146;2022-07-04T06:57:43;23.80;53.70
48734;DHT22;34530;52.084;5.146;2022-07-04T07:00:09;23.80;53.90
48734;DHT22;34530;52.084;5.146;2022-07-04T07:02:36;23.80;54.10
48734;DHT22;34530;52.084;5.146;2022-07-04T07:05:03;23.80;54.30
48734;DHT22;34530;52.084;5.146;2022-07-04T07:07:29;23.80;54.40
48734;DHT22;34530;52.084;5.146;2022-07-04T07:09:55;23.80;54.60
48734;DHT22;34530;52.084;5.146;2022-07-04T07:12:22;23.80;54.70
48734;DHT22;34530;52.084;5.146;2022-07-04T07:14:49;23.80;54.90
48734;DHT22;34530;52.084;5.146;2022-07-04T07:17:15;23.80;55.00
48734;DHT22;34530;52.084;5.146;2022-07-04T07:19:41;23.80;55.20
48734;DHT22;34530;52.084;5.146;2022-07-04T07:22:09;24.10;55.40
48734;DHT22;34530;52.084;5.146;2022-07-04T07:24:35;24.00;55.60
48734;DHT22;34530;52.084;5.146;2022-07-04T07:27:01;24.00;55.50
48734;DHT22;34530;52.084;5.146;2022-07-04T07:29:26;23.90;55.40
48734;DHT22;34530;52.084;5.146;2022-07-04T07:31:52;23.90;55.50
48734;DHT22;34530;52.084;5.146;2022-07-04T07:34:18;24.00;55.50
48734;DHT22;34530;52.084;5.146;2022-07-04T07:36:43;23.90;55.40
48734;DHT22;34530;52.084;5.146;2022-07-04T07:39:09;23.90;55.30
48734;DHT22;34530;52.084;5.146;2022-07-04T07:41:35;23.90;55.30
48734;DHT22;34530;52.084;5.146;2022-07-04T07:44:00;23.90;55.30
48734;DHT22;34530;52.084;5.146;2022-07-04T07:46:26;23.90;55.20
48734;DHT22;34530;52.084;5.146;2022-07-04T07:48:52;23.90;55.10
48734;DHT22;34530;52.084;5.146;2022-07-04T07:51:17;23.90;55.10
48734;DHT22;34530;52.084;5.146;2022-07-04T07:53:43;23.90;55.00
48734;DHT22;34530;52.084;5.146;2022-07-04T07:56:09;23.90;55.00
48734;DHT22;34530;52.084;5.146;2022-07-04T07:58:35;23.90;55.00
48734;DHT22;34530;52.084;5.146;2022-07-04T08:01:01;23.90;55.00
48734;DHT22;34530;52.084;5.146;2022-07-04T08:03:30;23.90;55.00
48734;DHT22;34530;52.084;5.146;2022-07-04T08:06:15;23.90;54.80
48734;DHT22;34530;52.084;5.146;2022-07-04T08:08:42;23.90;54.80
48734;DHT22;34530;52.084;5.146;2022-07-04T08:11:10;23.90;54.80
48734;DHT22;34530;52.084;5.146;2022-07-04T08:13:36;23.90;54.80
48734;DHT22;34530;52.084;5.146;2022-07-04T08:16:02;23.90;54.80
48734;DHT22;34530;52.084;5.146;2022-07-04T08:18:28;24.20;54.80
48734;DHT22;34530;52.084;5.146;2022-07-04T08:20:54;24.10;54.70
48734;DHT22;34530;52.084;5.146;2022-07-04T08:23:19;24.10;54.50
48734;DHT22;34530;52.084;5.146;2022-07-04T08:25:45;24.10;54.40
48734;DHT22;34530;52.084;5.146;2022-07-04T08:28:11;24.10;54.40
48734;DHT22;34530;52.084;5.146;2022-07-04T08:30:37;24.00;54.20
48734;DHT22;34530;52.084;5.146;2022-07-04T08:33:02;24.00;54.00
48734;DHT22;34530;52.084;5.146;2022-07-04T08:35:28;24.00;53.80
48734;DHT22;34530;52.084;5.146;2022-07-04T08:37:54;24.00;53.60
48734;DHT22;34530;52.084;5.146;2022-07-04T08:40:26;24.00;54.10
48734;DHT22;34530;52.084;5.146;2022-07-04T08:42:53;24.00;53.60
48734;DHT22;34530;52.084;5.146;2022-07-04T08:45:29;23.90;53.40
48734;DHT22;34530;52.084;5.146;2022-07-04T08:48:01;24.00;53.30
48734;DHT22;34530;52.084;5.146;2022-07-04T08:50:38;23.90;53.10
48734;DHT22;34530;52.084;5.146;2022-07-04T08:53:11;23.90;53.20
48734;DHT22;34530;52.084;5.146;2022-07-04T08:55:39;24.20;52.90
48734;DHT22;34530;52.084;5.146;2022-07-04T08:58:24;24.10;52.80
48734;DHT22;34530;52.084;5.146;2022-07-04T09:00:58;24.00;52.70
48734;DHT22;34530;52.084;5.146;2022-07-04T09:03:24;24.00;52.60
48734;DHT22;34530;52.084;5.146;2022-07-04T09:05:51;24.10;53.20
48734;DHT22;34530;52.084;5.146;2022-07-04T09:08:17;24.10;52.50
48734;DHT22;34530;52.084;5.146;2022-07-04T09:10:42;24.10;52.40
48734;DHT22;34530;52.084;5.146;2022-07-04T09:13:10;24.10;52.30
48734;DHT22;34530;52.084;5.146;2022-07-04T09:15:36;24.10;52.20
48734;DHT22;34530;52.084;5.146;2022-07-04T09:18:03;24.10;51.80
48734;DHT22;34530;52.084;5.146;2022-07-04T09:20:30;24.00;51.50
48734;DHT22;34530;52.084;5.146;2022-07-04T09:22:56;24.00;51.30
48734;DHT22;34530;52.084;5.146;2022-07-04T09:25:23;24.00;51.10
48734;DHT22;34530;52.084;5.146;2022-07-04T09:27:56;24.10;50.70
48734;DHT22;34530;52.084;5.146;2022-07-04T09:30:26;24.00;50.40
48734;DHT22;34530;52.084;5.146;2022-07-04T09:32:57;24.00;50.50
48734;DHT22;34530;52.084;5.146;2022-07-04T09:35:27;23.90;50.60
48734;DHT22;34530;52.084;5.146;2022-07-04T09:37:58;23.90;50.90
48734;DHT22;34530;52.084;5.146;2022-07-04T09:40:33;23.90;50.80
48734;DHT22;34530;52.084;5.146;2022-07-04T09:43:01;23.80;50.80
48734;DHT22;34530;52.084;5.146;2022-07-04T09:45:35;23.80;50.70
48734;DHT22;34530;52.084;5.146;2022-07-04T09:48:17;23.80;50.80
48734;DHT22;34530;52.084;5.146;2022-07-04T09:50:43;23.80;50.90
48734;DHT22;34530;52.084;5.146;2022-07-04T09:53:09;23.80;51.00
48734;DHT22;34530;52.084;5.146;2022-07-04T09:55:39;23.80;51.10
48734;DHT22;34530;52.084;5.146;2022-07-04T09:58:07;23.80;50.70
48734;DHT22;34530;52.084;5.146;2022-07-04T10:00:35;23.70;50.50
48734;DHT22;34530;52.084;5.146;2022-07-04T10:06:06;23.70;50.10
48734;DHT22;34530;52.084;5.146;2022-07-04T10:08:33;23.70;50.10
48734;DHT22;34530;52.084;5.146;2022-07-04T10:11:00;24.00;49.60
48734;DHT22;34530;52.084;5.146;2022-07-04T10:13:26;23.90;49.80
48734;DHT22;34530;52.084;5.146;2022-07-04T10:15:52;24.10;49.30
48734;DHT22;34530;52.084;5.146;2022-07-04T10:18:19;24.00;49.50
48734;DHT22;34530;52.084;5.146;2022-07-04T10:20:46;23.90;49.70
48734;DHT22;34530;52.084;5.146;2022-07-04T10:23:12;23.90;49.80
48734;DHT22;34530;52.084;5.146;2022-07-04T10:25:39;23.80;49.90
48734;DHT22;34530;52.084;5.146;2022-07-04T10:28:05;23.90;50.00
48734;DHT22;34530;52.084;5.146;2022-07-04T10:30:35;23.90;50.30
48734;DHT22;34530;52.084;5.146;2022-07-04T10:33:03;24.00;51.00
48734;DHT22;34530;52.084;5.146;2022-07-04T10:35:51;24.00;50.60
48734;DHT22;34530;52.084;5.146;2022-07-04T10:38:25;24.00;50.70
48734;DHT22;34530;52.084;5.146;2022-07-04T10:40:53;24.10;50.80
48734;DHT22;34530;52.084;5.146;2022-07-04T10:48:33;24.20;51.00
48734;DHT22;34530;52.084;5.146;2022-07-04T10:51:06;24.20;51.00
48734;DHT22;34530;52.084;5.146;2022-07-04T10:53:33;24.20;50.90
48734;DHT22;34530;52.084;5.146;2022-07-04T10:58:45;24.30;50.80
48734;DHT22;34530;52.084;5.146;2022-07-04T11:01:14;24.30;50.90
48734;DHT22;34530;52.084;5.146;2022-07-04T11:03:47;24.30;50.90
48734;DHT22;34530;52.084;5.146;2022-07-04T11:09:15;24.30;50.90
48734;DHT22;34530;52.084;5.146;2022-07-04T11:14:44;24.30;50.70
48734;DHT22;34530;52.084;5.146;2022-07-04T11:17:36;24.40;50.60
48734;DHT22;34530;52.084;5.146;2022-07-04T11:20:05;24.30;51.20
48734;DHT22;34530;52.084;5.146;2022-07-04T11:22:33;24.30;50.50
48734;DHT22;34530;52.084;5.146;2022-07-04T11:25:00;24.40;50.60
48734;DHT22;34530;52.084;5.146;2022-07-04T11:27:26;24.40;50.50
48734;DHT22;34530;52.084;5.146;2022-07-04T11:29:51;24.40;50.40
48734;DHT22;34530;52.084;5.146;2022-07-04T11:32:18;24.40;50.40
48734;DHT22;34530;52.084;5.146;2022-07-04T11:34:44;24.40;50.50
48734;DHT22;34530;52.084;5.146;2022-07-04T11:37:11;24.50;50.60
48734;DHT22;34530;52.084;5.146;2022-07-04T11:39:37;24.50;50.40
48734;DHT22;34530;52.084;5.146;2022-07-04T11:42:03;24.50;50.40
48734;DHT22;34530;52.084;5.146;2022-07-04T11:44:47;24.50;50.40
48734;DHT22;34530;52.084;5.146;2022-07-04T11:47:54;24.60;49.70
48734;DHT22;34530;52.084;5.146;2022-07-04T11:50:20;24.50;48.70
48734;DHT22;34530;52.084;5.146;2022-07-04T11:52:47;24.50;48.60
48734;DHT22;34530;52.084;5.146;2022-07-04T11:55:16;24.40;48.20
48734;DHT22;34530;52.084;5.146;2022-07-04T11:57:47;24.30;47.80
48734;DHT22;34530;52.084;5.146;2022-07-04T12:00:15;24.30;47.40
48734;DHT22;34530;52.084;5.146;2022-07-04T12:02:42;24.30;47.40
48734;DHT22;34530;52.084;5.146;2022-07-04T12:05:10;24.20;47.20
48734;DHT22;34530;52.084;5.146;2022-07-04T12:07:47;24.30;47.40
48734;DHT22;34530;52.084;5.146;2022-07-04T12:10:16;24.30;47.60
48734;DHT22;34530;52.084;5.146;2022-07-04T12:12:59;24.30;47.80
48734;DHT22;34530;52.084;5.146;2022-07-04T12:15:35;24.30;47.80
48734;DHT22;34530;52.084;5.146;2022-07-04T12:18:02;24.20;47.80
48734;DHT22;34530;52.084;5.146;2022-07-04T12:20:27;24.20;47.70
48734;DHT22;34530;52.084;5.146;2022-07-04T12:23:00;24.30;47.60
48734;DHT22;34530;52.084;5.146;2022-07-04T12:25:35;24.30;47.60
48734;DHT22;34530;52.084;5.146;2022-07-04T12:28:11;24.30;47.60
48734;DHT22;34530;52.084;5.146;2022-07-04T12:30:55;24.30;47.70
48734;DHT22;34530;52.084;5.146;2022-07-04T12:33:23;24.30;47.80
48734;DHT22;34530;52.084;5.146;2022-07-04T12:41:03;24.20;47.90
48734;DHT22;34530;52.084;5.146;2022-07-04T12:46:11;24.30;47.50
48734;DHT22;34530;52.084;5.146;2022-07-04T12:48:38;24.30;47.70
48734;DHT22;34530;52.084;5.146;2022-07-04T12:51:17;24.30;47.60
48734;DHT22;34530;52.084;5.146;2022-07-04T12:53:45;24.20;47.00
48734;DHT22;34530;52.084;5.146;2022-07-04T12:58:54;24.20;46.80
48734;DHT22;34530;52.084;5.146;2022-07-04T13:01:19;24.20;46.90
48734;DHT22;34530;52.084;5.146;2022-07-04T13:03:45;24.30;47.20
48734;DHT22;34530;52.084;5.146;2022-07-04T13:06:10;24.30;47.40
48734;DHT22;34530;52.084;5.146;2022-07-04T13:08:36;24.30;47.40
48734;DHT22;34530;52.084;5.146;2022-07-04T13:11:02;24.30;47.40
48734;DHT22;34530;52.084;5.146;2022-07-04T13:13:46;24.30;47.10
48734;DHT22;34530;52.084;5.146;2022-07-04T13:16:11;24.30;47.30
48734;DHT22;34530;52.084;5.146;2022-07-04T13:18:37;24.40;47.50
48734;DHT22;34530;52.084;5.146;2022-07-04T13:21:03;24.40;47.80
48734;DHT22;34530;52.084;5.146;2022-07-04T13:23:28;24.50;48.00
48734;DHT22;34530;52.084;5.146;2022-07-04T13:25:54;24.50;48.20
48734;DHT22;34530;52.084;5.146;2022-07-04T13:28:19;24.60;48.30
48734;DHT22;34530;52.084;5.146;2022-07-04T13:30:45;24.60;48.00
48734;DHT22;34530;52.084;5.146;2022-07-04T13:33:11;24.70;48.00
48734;DHT22;34530;52.084;5.146;2022-07-04T13:35:36;24.70;48.30
48734;DHT22;34530;52.084;5.146;2022-07-04T13:38:02;24.70;48.60
48734;DHT22;34530;52.084;5.146;2022-07-04T13:40:28;24.70;48.70
48734;DHT22;34530;52.084;5.146;2022-07-04T13:42:53;24.80;48.70
48734;DHT22;34530;52.084;5.146;2022-07-04T13:45:25;24.80;48.90
48734;DHT22;34530;52.084;5.146;2022-07-04T13:47:52;24.80;49.50
48734;DHT22;34530;52.084;5.146;2022-07-04T13:50:18;24.90;48.90
48734;DHT22;34530;52.084;5.146;2022-07-04T13:52:44;24.90;48.80
48734;DHT22;34530;52.084;5.146;2022-07-04T13:55:10;24.90;48.70
48734;DHT22;34530;52.084;5.146;2022-07-04T13:57:36;24.90;48.50
48734;DHT22;34530;52.084;5.146;2022-07-04T14:00:04;24.90;48.70
48734;DHT22;34530;52.084;5.146;2022-07-04T14:02:30;25.00;48.80
48734;DHT22;34530;52.084;5.146;2022-07-04T14:04:55;25.00;48.90
48734;DHT22;34530;52.084;5.146;2022-07-04T14:07:21;25.00;48.90
48734;DHT22;34530;52.084;5.146;2022-07-04T14:09:47;25.10;48.90
48734;DHT22;34530;52.084;5.146;2022-07-04T14:12:13;25.10;48.90
48734;DHT22;34530;52.084;5.146;2022-07-04T14:14:39;25.10;48.50
48734;DHT22;34530;52.084;5.146;2022-07-04T14:17:06;25.10;48.60
48734;DHT22;34530;52.084;5.146;2022-07-04T14:19:31;25.10;48.60
48734;DHT22;34530;52.084;5.146;2022-07-04T14:21:57;25.20;48.60
48734;DHT22;34530;52.084;5.146;2022-07-04T14:24:23;25.20;48.50
48734;DHT22;34530;52.084;5.146;2022-07-04T14:26:51;25.20;48.50
48734;DHT22;34530;52.084;5.146;2022-07-04T14:29:17;25.20;49.20
48734;DHT22;34530;52.084;5.146;2022-07-04T14:31:43;25.20;48.40
48734;DHT22;34530;52.084;5.146;2022-07-04T14:34:09;25.30;48.40
48734;DHT22;34530;52.084;5.146;2022-07-04T14:36:37;25.30;48.50
48734;DHT22;34530;52.084;5.146;2022-07-04T14:39:03;25.30;48.40
48734;DHT22;34530;52.084;5.146;2022-07-04T14:41:28;25.30;48.40
48734;DHT22;34530;52.084;5.146;2022-07-04T14:43:54;25.30;48.30
48734;DHT22;34530;52.084;5.146;2022-07-04T14:46:20;25.30;48.10
48734;DHT22;34530;52.084;5.146;2022-07-04T14:48:46;25.30;48.30
48734;DHT22;34530;52.084;5.146;2022-07-04T14:51:11;25.30;48.10
48734;DHT22;34530;52.084;5.146;2022-07-04T14:53:37;25.30;48.10
48734;DHT22;34530;52.084;5.146;2022-07-04T14:56:03;25.40;48.30
48734;DHT22;34530;52.084;5.146;2022-07-04T14:58:29;25.40;48.30
48734;DHT22;34530;52.084;5.146;2022-07-04T15:00:54;25.40;48.20
48734;DHT22;34530;52.084;5.146;2022-07-04T15:03:20;25.40;48.20
48734;DHT22;34530;52.084;5.146;2022-07-04T15:05:46;25.40;48.10
48734;DHT22;34530;52.084;5.146;2022-07-04T15:08:11;25.40;48.20
48734;DHT22;34530;52.084;5.146;2022-07-04T15:10:37;25.50;48.30
48734;DHT22;34530;52.084;5.146;2022-07-04T15:13:03;25.50;48.30
48734;DHT22;34530;52.084;5.146;2022-07-04T15:15:29;25.50;48.30
48734;DHT22;34530;52.084;5.146;2022-07-04T15:17:54;25.50;48.30
48734;DHT22;34530;52.084;5.146;2022-07-04T15:20:20;25.50;48.40
48734;DHT22;34530;52.084;5.146;2022-07-04T15:23:04;25.50;48.50
48734;DHT22;34530;52.084;5.146;2022-07-04T15:25:48;25.50;47.70
48734;DHT22;34530;52.084;5.146;2022-07-04T15:28:13;25.50;46.90
48734;DHT22;34530;52.084;5.146;2022-07-04T15:30:42;25.40;46.40
48734;DHT22;34530;52.084;5.146;2022-07-04T15:33:08;25.40;46.20
48734;DHT22;34530;52.084;5.146;2022-07-04T15:35:40;25.40;46.20
48734;DHT22;34530;52.084;5.146;2022-07-04T15:38:06;25.30;46.10
48734;DHT22;34530;52.084;5.146;2022-07-04T15:40:31;25.30;46.00
48734;DHT22;34530;52.084;5.146;2022-07-04T15:42:57;25.30;46.00
48734;DHT22;34530;52.084;5.146;2022-07-04T15:45:23;25.30;46.10
48734;DHT22;34530;52.084;5.146;2022-07-04T15:47:48;25.30;46.00
48734;DHT22;34530;52.084;5.146;2022-07-04T15:50:14;25.30;46.00
48734;DHT22;34530;52.084;5.146;2022-07-04T15:52:40;25.30;45.90
48734;DHT22;34530;52.084;5.146;2022-07-04T15:55:06;25.30;45.80
48734;DHT22;34530;52.084;5.146;2022-07-04T15:57:31;25.30;45.80